createdAt,value
2022-09-28T04:16:01.676Z,4.16
2022-09-28T04:18:33.344Z,4.33
2022-09-28T04:21:23.065Z,4.48
2022-09-28T04:23:55.308Z,4.47
2022-09-28T04:26:27.178Z,4.50
2022-09-28T04:29:12.834Z,4.56
2022-09-28T04:32:14.795Z,4.62
2022-09-28T04:34:44.069Z,4.61
2022-09-28T04:37:11.352Z,4.49
2022-09-28T04:39:38.795Z,4.60
2022-09-28T04:42:06.246Z,4.60
2022-09-28T04:44:32.778Z,4.63
2022-09-28T04:47:05.496Z,4.68
2022-09-28T04:49:32.325Z,4.80
2022-09-28T04:52:08.210Z,4.78
2022-09-28T04:54:35.177Z,4.65
2022-09-28T04:57:03.301Z,4.70
2022-09-28T04:59:41.109Z,4.58
2022-09-28T05:02:09.881Z,4.53
2022-09-28T05:04:36.367Z,4.53
2022-09-28T05:07:17.938Z,4.70
2022-09-28T05:09:44.423Z,4.64
2022-09-28T05:12:11.027Z,4.50
2022-09-28T05:14:38.175Z,4.44
2022-09-28T05:17:05.426Z,4.45
2022-09-28T05:20:41.026Z,4.40
2022-09-28T05:24:23.730Z,4.51
2022-09-28T05:26:51.821Z,4.13
2022-09-28T05:29:19.195Z,4.00
2022-09-28T05:32:16.757Z,4.21
2022-09-28T05:35:19.973Z,4.10
2022-09-28T05:37:51.382Z,4.00
2022-09-28T05:40:18.837Z,3.97
2022-09-28T05:42:45.398Z,4.08
2022-09-28T05:45:13.024Z,3.83
2022-09-28T05:47:43.977Z,4.03
2022-09-28T05:50:15.916Z,4.04
2022-09-28T05:52:43.778Z,4.08
2022-09-28T05:55:11.120Z,4.07
2022-09-28T05:57:37.737Z,3.86
2022-09-28T06:00:08.862Z,3.81
2022-09-28T06:02:56.063Z,3.72
2022-09-28T06:05:23.132Z,3.70
2022-09-28T06:07:49.943Z,3.89
2022-09-28T06:10:16.539Z,3.82
2022-09-28T06:12:43.179Z,4.12
2022-09-28T06:15:15.507Z,4.17
2022-09-28T06:17:44.088Z,4.27
2022-09-28T06:21:50.226Z,4.34
2022-09-28T06:24:23.052Z,4.24
2022-09-28T06:26:53.637Z,4.32
2022-09-28T06:29:21.320Z,4.10
2022-09-28T06:32:09.857Z,4.39
2022-09-28T06:34:38.127Z,4.50
2022-09-28T06:37:04.751Z,4.76
2022-09-28T06:39:31.884Z,4.87
2022-09-28T06:42:03.255Z,4.51
2022-09-28T06:44:50.049Z,4.73
2022-09-28T06:48:10.015Z,4.44
2022-09-28T06:50:42.647Z,4.30
2022-09-28T06:53:35.733Z,4.41
2022-09-28T06:56:11.054Z,4.44
2022-09-28T06:58:37.735Z,4.73
2022-09-28T07:01:05.733Z,4.61
2022-09-28T07:04:52.347Z,4.62
2022-09-28T07:07:49.300Z,4.39
2022-09-28T07:10:48.931Z,4.67
2022-09-28T07:13:51.238Z,4.73
2022-09-28T07:16:12.818Z,4.58
2022-09-28T07:18:39.311Z,4.75
2022-09-28T07:21:08.659Z,4.78
2022-09-28T07:23:54.295Z,4.90
2022-09-28T07:26:24.862Z,5.14
2022-09-28T07:29:17.430Z,4.75
2022-09-28T07:31:56.008Z,5.20
2022-09-28T07:34:28.706Z,5.45
2022-09-28T07:37:01.691Z,5.33
2022-09-28T07:39:28.698Z,5.10
2022-09-28T07:41:59.650Z,5.22
2022-09-28T07:44:29.521Z,5.33
2022-09-28T07:46:59.563Z,5.29
2022-09-28T07:49:52.364Z,5.56
2022-09-28T07:52:39.571Z,5.72
2022-09-28T07:55:13.937Z,5.50
2022-09-28T07:58:04.725Z,6.06
2022-09-28T08:00:47.531Z,6.35
2022-09-28T08:03:18.109Z,6.36
2022-09-28T08:05:45.659Z,6.47
2022-09-28T08:08:18.431Z,6.67
2022-09-28T08:11:43.827Z,6.48
2022-09-28T08:15:21.372Z,6.51
2022-09-28T08:18:06.955Z,6.36
2022-09-28T08:20:52.560Z,6.47
2022-09-28T08:23:20.385Z,6.55
2022-09-28T08:25:53.854Z,6.89
2022-09-28T08:28:24.192Z,6.63
2022-09-28T08:30:54.275Z,6.93
2022-09-28T08:33:42.066Z,7.08
2022-09-28T08:41:17.533Z,6.60
2022-09-28T08:44:24.096Z,6.74
2022-09-28T08:47:37.982Z,6.67
2022-09-28T08:50:32.893Z,6.63
2022-09-28T08:53:58.666Z,6.42
2022-09-28T08:56:44.733Z,6.56
2022-09-28T08:59:16.509Z,6.83
2022-09-28T09:01:57.736Z,7.16
2022-09-28T09:04:33.381Z,7.23
2022-09-28T09:08:02.943Z,7.31
2022-09-28T09:10:45.060Z,7.43
2022-09-28T09:13:31.925Z,7.80
2022-09-28T09:16:20.905Z,8.26
2022-09-28T09:24:18.678Z,8.30
2022-09-28T09:27:37.978Z,8.04
2022-09-28T09:30:11.798Z,8.31
2022-09-28T09:32:57.844Z,8.71
2022-09-28T09:35:59.381Z,8.71
2022-09-28T09:39:34.456Z,7.62
2022-09-28T09:42:51.598Z,7.62
2022-09-28T09:46:41.333Z,7.46
2022-09-28T09:50:25.878Z,7.25
2022-09-28T09:53:38.471Z,7.95
2022-09-28T09:56:16.962Z,7.66
2022-09-28T09:59:24.007Z,7.92
2022-09-28T10:02:33.197Z,7.79
2022-09-28T10:05:13.600Z,7.98
2022-09-28T10:08:20.542Z,8.15
2022-09-28T10:11:09.564Z,8.03
2022-09-28T10:13:40.337Z,8.32
2022-09-28T10:16:27.103Z,8.23
2022-09-28T10:18:58.997Z,8.30
2022-09-28T10:21:46.812Z,8.43
2022-09-28T10:25:22.667Z,8.66
2022-09-28T10:32:20.737Z,8.02
2022-09-28T10:34:50.286Z,8.30
2022-09-28T10:37:26.477Z,8.47
2022-09-28T10:40:01.567Z,8.36
2022-09-28T10:42:35.438Z,8.45
2022-09-28T10:45:13.855Z,8.75
2022-09-28T10:47:44.728Z,7.89
2022-09-28T10:50:20.350Z,8.00
2022-09-28T10:52:47.561Z,8.27
2022-09-28T10:55:37.536Z,8.45
2022-09-28T10:58:38.245Z,8.66
2022-09-28T11:01:26.823Z,8.77
2022-09-28T11:04:03.018Z,8.13
2022-09-28T11:06:33.191Z,8.36
2022-09-28T11:09:02.656Z,8.61
2022-09-28T11:11:29.893Z,8.62
2022-09-28T11:14:42.069Z,8.23
2022-09-28T11:17:18.492Z,8.67
2022-09-28T11:19:46.581Z,8.43
2022-09-28T11:22:44.855Z,8.12
2022-09-28T11:25:17.551Z,8.70
2022-09-28T11:27:53.109Z,8.50
2022-09-28T11:30:24.985Z,8.96
2022-09-28T11:33:17.743Z,8.77
2022-09-28T11:36:17.168Z,8.79
2022-09-28T11:39:09.256Z,8.82
2022-09-28T11:42:42.845Z,8.59
2022-09-28T11:45:25.828Z,9.29
2022-09-28T11:48:00.864Z,9.72
2022-09-28T11:51:10.593Z,9.34
2022-09-28T11:53:47.955Z,8.80
2022-09-28T11:56:27.435Z,8.44
2022-09-28T11:59:04.602Z,9.00
2022-09-28T12:01:46.823Z,8.94
2022-09-28T12:04:39.805Z,9.27
2022-09-28T12:07:31.143Z,11.01
2022-09-28T12:10:15.404Z,12.76
2022-09-28T12:12:51.781Z,15.57
2022-09-28T12:15:26.582Z,12.38
2022-09-28T12:17:58.406Z,11.04
2022-09-28T12:20:32.983Z,10.89
2022-09-28T12:22:59.504Z,10.23
2022-09-28T12:25:29.514Z,9.94
2022-09-28T12:28:16.758Z,9.73
2022-09-28T12:30:46.241Z,10.30
2022-09-28T12:33:17.536Z,10.01
2022-09-28T12:36:02.651Z,9.88
2022-09-28T12:38:54.117Z,11.31
2022-09-28T12:41:42.164Z,11.48
2022-09-28T12:44:28.152Z,11.66
2022-09-28T12:47:16.014Z,10.63
2022-09-28T12:50:53.992Z,11.16
2022-09-28T12:53:52.946Z,9.87
2022-09-28T12:57:03.733Z,10.68
2022-09-28T13:00:00.987Z,11.14
2022-09-28T13:02:43.880Z,10.81
2022-09-28T13:05:37.247Z,10.86
2022-09-28T13:08:10.935Z,10.14
2022-09-28T13:10:55.179Z,9.67
2022-09-28T13:13:38.036Z,10.03
2022-09-28T13:16:17.503Z,9.88
2022-09-28T13:19:16.786Z,9.72
2022-09-28T13:22:18.831Z,9.74
2022-09-28T13:24:46.431Z,10.06
2022-09-28T13:27:23.984Z,11.10
2022-09-28T13:29:52.249Z,10.89
2022-09-28T13:32:19.782Z,11.36
2022-09-28T13:34:49.563Z,12.15
2022-09-28T13:37:26.215Z,12.37
2022-09-28T13:39:55.179Z,11.91
2022-09-28T13:42:24.939Z,12.37
2022-09-28T13:51:22.038Z,12.66
2022-09-28T13:54:08.652Z,13.74
2022-09-28T13:57:02.696Z,12.17
2022-09-28T13:59:31.944Z,11.95
2022-09-28T14:02:09.601Z,12.64
2022-09-28T14:05:17.256Z,11.62
2022-09-28T14:07:43.781Z,11.37
2022-09-28T14:10:25.925Z,11.40
2022-09-28T14:12:54.021Z,11.01
2022-09-28T14:15:46.650Z,10.61
2022-09-28T14:18:16.292Z,10.70
2022-09-28T14:21:02.602Z,10.75
2022-09-28T14:24:03.360Z,10.53
2022-09-28T14:27:02.106Z,10.49
2022-09-28T14:29:32.027Z,10.34
2022-09-28T14:32:09.701Z,10.30
2022-09-28T14:34:38.053Z,9.99
2022-09-28T14:37:36.809Z,9.66
2022-09-28T14:40:50.305Z,9.39
2022-09-28T14:43:25.994Z,9.99
2022-09-28T14:46:14.579Z,10.10
2022-09-28T14:48:54.126Z,9.94
2022-09-28T14:51:26.757Z,9.99
2022-09-28T14:53:55.233Z,9.58
2022-09-28T14:56:22.219Z,9.57
2022-09-28T14:58:55.970Z,9.47
2022-09-28T15:01:24.678Z,9.35
2022-09-28T15:03:57.055Z,9.27
2022-09-28T15:06:24.846Z,9.34
2022-09-28T15:08:51.572Z,9.80
2022-09-28T15:11:24.032Z,9.88
2022-09-28T15:14:04.466Z,9.87
2022-09-28T15:16:31.242Z,10.04
2022-09-28T15:19:23.660Z,9.89
2022-09-28T15:21:51.112Z,9.94
2022-09-28T15:24:31.619Z,9.74
2022-09-28T15:27:15.136Z,10.13
2022-09-28T15:29:41.744Z,10.28
2022-09-28T15:32:23.537Z,10.11
2022-09-28T15:34:54.378Z,10.34
2022-09-28T15:37:32.912Z,10.52
2022-09-28T15:40:00.793Z,10.20
2022-09-28T15:42:59.119Z,9.88
2022-09-28T15:45:39.904Z,9.98
2022-09-28T15:48:31.112Z,9.82
2022-09-28T15:51:11.580Z,10.07
2022-09-28T15:53:43.718Z,10.18
2022-09-28T15:56:11.739Z,10.38
2022-09-28T15:58:39.516Z,10.03
2022-09-28T16:01:39.725Z,9.74
2022-09-28T16:04:40.477Z,9.81
2022-09-28T16:07:13.048Z,9.98
2022-09-28T16:09:54.993Z,9.97
2022-09-28T16:12:31.712Z,10.00
2022-09-28T16:15:04.143Z,10.09
2022-09-28T16:17:34.221Z,10.12
2022-09-28T16:20:23.887Z,10.09
2022-09-28T16:22:51.012Z,10.02
2022-09-28T16:25:25.594Z,10.11
2022-09-28T16:27:55.060Z,9.97
2022-09-28T16:30:28.838Z,9.54
2022-09-28T16:33:01.825Z,9.44
2022-09-28T16:35:40.531Z,9.46
2022-09-28T16:38:16.134Z,9.09
2022-09-28T16:40:53.867Z,9.24
2022-09-28T16:43:29.316Z,9.25
2022-09-28T16:45:58.750Z,8.95
2022-09-28T16:48:28.337Z,8.87
2022-09-28T16:50:55.846Z,8.80
2022-09-28T16:53:41.543Z,8.80
2022-09-28T16:56:08.454Z,8.53
2022-09-28T16:58:36.525Z,8.49
2022-09-28T17:01:03.283Z,8.42
2022-09-28T17:03:30.045Z,8.55
2022-09-28T17:05:56.871Z,8.57
2022-09-28T17:08:26.662Z,8.51
2022-09-28T17:11:13.938Z,8.64
2022-09-28T17:13:43.995Z,8.79
2022-09-28T17:16:32.218Z,8.75
2022-09-28T17:19:33.175Z,8.66
2022-09-28T17:21:59.607Z,8.80
2022-09-28T17:24:27.095Z,8.79
2022-09-28T17:26:54.179Z,8.89
2022-09-28T17:29:20.688Z,8.84
2022-09-28T17:31:48.177Z,9.04
2022-09-28T17:34:16.191Z,9.13
2022-09-28T17:36:44.136Z,9.15
2022-09-28T17:39:16.616Z,9.18
2022-09-28T17:41:43.454Z,8.99
2022-09-28T17:44:10.208Z,9.00
2022-09-28T17:46:48.469Z,8.93
2022-09-28T17:49:15.618Z,8.91
2022-09-28T17:51:42.244Z,9.06
2022-09-28T17:54:08.952Z,8.95
2022-09-28T17:56:40.573Z,8.99
2022-09-28T17:59:16.142Z,9.01
2022-09-28T18:01:42.671Z,9.02
2022-09-28T18:04:23.004Z,9.02
2022-09-28T18:06:50.953Z,8.93
2022-09-28T18:09:24.750Z,8.60
2022-09-28T18:11:52.765Z,8.60
2022-09-28T18:14:19.182Z,8.49
2022-09-28T18:16:45.998Z,8.54
2022-09-28T18:19:12.532Z,8.48
2022-09-28T18:21:39.017Z,8.54
2022-09-28T18:24:05.658Z,8.28
2022-09-28T18:26:32.094Z,8.02
2022-09-28T18:28:58.550Z,8.14
2022-09-28T18:31:25.082Z,8.20
2022-09-28T18:33:57.331Z,8.17
2022-09-28T18:36:32.190Z,8.30
2022-09-28T18:39:00.914Z,8.15
2022-09-28T18:41:27.981Z,8.04
2022-09-28T18:44:00.435Z,8.14
2022-09-28T18:46:28.885Z,8.01
2022-09-28T18:49:52.498Z,8.12
2022-09-28T18:52:18.988Z,8.08
2022-09-28T18:54:46.746Z,8.13
2022-09-28T18:57:13.367Z,8.12
2022-09-28T18:59:40.075Z,8.03
2022-09-28T19:02:06.821Z,8.00
2022-09-28T19:04:33.339Z,8.15
2022-09-28T19:06:59.924Z,8.21
2022-09-28T19:09:26.653Z,8.09
2022-09-28T19:12:00.728Z,7.87
2022-09-28T19:15:20.100Z,7.59
2022-09-28T19:18:39.680Z,7.72
2022-09-28T19:21:08.673Z,7.80
2022-09-28T19:23:36.719Z,7.78
2022-09-28T19:26:09.252Z,7.84
2022-09-28T19:28:35.766Z,7.94
2022-09-28T19:31:04.689Z,7.91
2022-09-28T19:33:31.216Z,7.80
2022-09-28T19:36:04.034Z,7.83
2022-09-28T19:38:32.191Z,7.79
2022-09-28T19:40:59.502Z,7.63
2022-09-28T19:43:27.255Z,7.65
2022-09-28T19:45:55.868Z,7.61
2022-09-28T19:48:26.693Z,7.57
2022-09-28T19:50:58.498Z,7.60
2022-09-28T19:53:30.932Z,7.43
2022-09-28T19:55:59.182Z,7.54
2022-09-28T19:58:29.948Z,7.67
2022-09-28T20:00:56.738Z,7.57
2022-09-28T20:03:24.499Z,7.57
2022-09-28T20:05:57.056Z,7.49
2022-09-28T20:08:23.859Z,7.36
2022-09-28T20:10:52.405Z,7.48
2022-09-28T20:13:19.105Z,7.58
2022-09-28T20:15:45.757Z,7.57
2022-09-28T20:18:12.466Z,7.62
2022-09-28T20:20:41.931Z,7.64
2022-09-28T20:23:09.290Z,7.65
2022-09-28T20:25:35.965Z,7.54
2022-09-28T20:28:02.485Z,7.47
2022-09-28T20:30:28.925Z,7.38
2022-09-28T20:32:55.502Z,7.31
2022-09-28T20:35:30.611Z,7.39
2022-09-28T20:38:07.701Z,7.43
2022-09-28T20:40:35.229Z,7.44
2022-09-28T20:43:02.110Z,7.40
2022-09-28T20:45:28.544Z,7.36
2022-09-28T20:47:55.001Z,7.33
2022-09-28T20:50:22.081Z,7.12
2022-09-28T20:52:48.563Z,7.02
2022-09-28T20:55:15.203Z,6.98
2022-09-28T20:57:41.666Z,6.94
2022-09-28T21:00:10.286Z,6.81
2022-09-28T21:02:36.804Z,6.83
2022-09-28T21:05:03.540Z,6.78
2022-09-28T21:07:29.991Z,6.73
2022-09-28T21:09:56.446Z,6.63
2022-09-28T21:12:25.877Z,6.49
2022-09-28T21:14:53.680Z,6.53
2022-09-28T21:17:24.102Z,6.66
2022-09-28T21:19:54.067Z,6.60
2022-09-28T21:22:23.325Z,6.55
2022-09-28T21:24:55.470Z,6.58
2022-09-28T21:27:25.046Z,6.33
2022-09-28T21:29:58.062Z,5.98
2022-09-28T21:32:27.773Z,5.91
2022-09-28T21:34:56.082Z,5.77
2022-09-28T21:37:28.033Z,5.71
2022-09-28T21:40:02.817Z,5.53
2022-09-28T21:42:31.689Z,5.58
2022-09-28T21:45:04.178Z,5.66
2022-09-28T21:47:34.130Z,5.72
2022-09-28T21:50:03.313Z,5.78
2022-09-28T21:52:33.148Z,5.94
2022-09-28T21:55:09.760Z,5.93
2022-09-28T21:57:36.391Z,5.80
